Time;durP1;ratioP1;P1;durP2;ratioP2;P2;SDS_P1;SDS_P2;PMS_P1;PMS_P2;Temp;Humidity;BMP_temperature;BMP_pressure;BME280_temperature;BME280_humidity;BME280_pressure;Samples;Min_cycle;Max_cycle;Signal;HPM_P1;HPM_P2
2023/01/22 00:01:16;;;;;;;31.75;20.48;;;0.70;99.90;;;;;;5098954;28;20048;-72
2023/01/22 00:03:43;;;;;;;27.35;18.83;;;0.70;99.90;;;;;;5088489;28;20047;-71
2023/01/22 00:06:10;;;;;;;29.52;18.35;;;0.70;99.90;;;;;;5092467;28;20046;-71
2023/01/22 00:08:36;;;;;;;32.95;20.90;;;0.60;99.90;;;;;;5095622;28;20375;-71
2023/01/22 00:11:02;;;;;;;32.03;20.20;;;0.60;99.90;;;;;;5091706;28;20075;-72
2023/01/22 00:13:28;;;;;;;31.98;19.52;;;0.60;99.90;;;;;;5092667;28;20101;-71
2023/01/22 00:15:56;;;;;;;32.13;20.33;;;0.60;99.90;;;;;;5089379;28;20482;-71
2023/01/22 00:18:22;;;;;;;30.70;19.23;;;0.60;99.90;;;;;;5101706;28;20440;-71
2023/01/22 00:20:49;;;;;;;29.85;19.92;;;0.50;99.90;;;;;;5091645;28;20047;-71
2023/01/22 00:23:16;;;;;;;31.67;19.60;;;0.50;99.90;;;;;;5092306;28;20055;-71
2023/01/22 00:25:42;;;;;;;30.63;19.98;;;0.50;99.90;;;;;;5102978;28;20047;-72
2023/01/22 00:28:07;;;;;;;30.77;20.20;;;0.50;99.90;;;;;;5093326;28;20724;-71
2023/01/22 00:30:33;;;;;;;32.50;20.98;;;0.40;99.90;;;;;;5105273;28;20134;-71
2023/01/22 00:32:59;;;;;;;31.80;20.73;;;0.40;99.90;;;;;;5097479;28;20036;-71
2023/01/22 00:35:24;;;;;;;32.45;20.73;;;0.40;99.90;;;;;;5097793;28;20032;-71
2023/01/22 00:37:50;;;;;;;31.65;21.05;;;0.40;99.90;;;;;;5088537;28;20127;-71
2023/01/22 00:40:16;;;;;;;32.55;19.95;;;0.40;99.90;;;;;;5094975;28;20035;-71
2023/01/22 00:42:42;;;;;;;29.95;19.48;;;0.30;99.90;;;;;;5101704;28;20040;-71
2023/01/22 00:45:08;;;;;;;33.38;20.02;;;0.30;99.90;;;;;;5092717;28;20040;-71
2023/01/22 00:47:34;;;;;;;33.40;21.45;;;0.30;99.90;;;;;;5102894;28;20043;-71
2023/01/22 00:50:01;;;;;;;30.38;20.27;;;0.30;99.90;;;;;;5090297;28;20070;-71
2023/01/22 00:52:27;;;;;;;29.88;20.17;;;0.30;99.90;;;;;;5100923;28;20115;-72
2023/01/22 00:54:52;;;;;;;31.20;20.40;;;0.30;99.90;;;;;;5093669;28;20131;-71
2023/01/22 00:57:20;;;;;;;34.13;21.27;;;0.30;99.90;;;;;;5093377;28;20068;-72
2023/01/22 00:59:47;;;;;;;30.95;20.63;;;0.30;99.90;;;;;;5092513;28;20079;-72
2023/01/22 01:02:13;;;;;;;29.33;19.83;;;0.30;99.90;;;;;;5088942;28;20082;-71
2023/01/22 01:04:39;;;;;;;33.25;21.08;;;0.30;99.90;;;;;;5091261;28;20475;-72
2023/01/22 01:07:04;;;;;;;34.90;21.60;;;0.30;99.90;;;;;;5087302;28;20050;-71
2023/01/22 01:09:30;;;;;;;33.92;20.88;;;0.30;99.90;;;;;;5099440;28;20043;-72
2023/01/22 01:11:56;;;;;;;32.40;20.88;;;0.30;99.90;;;;;;5088222;28;20048;-71
2023/01/22 01:14:22;;;;;;;31.80;21.20;;;0.30;99.90;;;;;;5088687;28;20060;-72
2023/01/22 01:16:49;;;;;;;32.20;19.90;;;0.40;99.90;;;;;;5090996;28;20039;-71
2023/01/22 01:19:16;;;;;;;;;;;0.40;99.90;;;;;;5092036;28;20487;-72
2023/01/22 01:21:42;;;;;;;34.35;21.33;;;0.40;99.90;;;;;;5099146;28;19924;-71
2023/01/22 01:24:09;;;;;;;33.45;20.90;;;0.40;99.90;;;;;;5097026;28;20110;-71
2023/01/22 01:26:35;;;;;;;34.22;21.35;;;0.40;99.90;;;;;;5104353;28;20051;-72
2023/01/22 01:29:03;;;;;;;31.08;20.60;;;0.40;99.90;;;;;;5112515;28;20383;-71
2023/01/22 01:31:30;;;;;;;35.00;21.45;;;0.40;99.90;;;;;;5111413;27;20043;-71
2023/01/22 01:33:56;;;;;;;34.33;22.63;;;0.40;99.90;;;;;;5110780;28;20047;-71
2023/01/22 01:36:23;;;;;;;34.45;22.63;;;0.40;99.90;;;;;;5109998;28;20117;-72
2023/01/22 01:38:50;;;;;;;30.67;20.75;;;0.50;99.90;;;;;;5108924;28;20047;-72
2023/01/22 01:41:19;;;;;;;32.80;22.02;;;0.50;99.90;;;;;;5088555;28;20071;-72
2023/01/22 01:43:46;;;;;;;33.15;20.60;;;0.50;99.90;;;;;;5093287;28;20048;-71
2023/01/22 01:46:22;;;;;;;32.30;21.50;;;0.50;99.90;;;;;;5094871;28;20039;-71
2023/01/22 01:48:51;;;;;;;31.42;20.58;;;0.50;99.90;;;;;;5110834;28;20055;-72
2023/01/22 01:51:31;;;;;;;33.60;21.13;;;0.50;99.90;;;;;;5110593;28;20058;-71
2023/01/22 01:53:59;;;;;;;31.75;20.50;;;0.50;99.90;;;;;;5112385;28;20054;-70
2023/01/22 01:56:38;;;;;;;30.52;19.95;;;0.50;99.90;;;;;;5097942;28;20039;-71
2023/01/22 01:59:09;;;;;;;29.23;19.45;;;0.50;99.90;;;;;;5069639;28;20052;-71
2023/01/22 02:01:35;;;;;;;29.60;19.98;;;0.50;99.90;;;;;;5104665;28;20039;-71
2023/01/22 02:04:01;;;;;;;28.58;19.58;;;0.50;99.90;;;;;;5095423;28;20092;-72
2023/01/22 02:06:26;;;;;;;29.08;19.35;;;0.50;99.90;;;;;;5107429;28;20041;-71
2023/01/22 02:08:53;;;;;;;28.77;19.20;;;0.50;99.90;;;;;;5094410;28;20379;-72
2023/01/22 02:11:21;;;;;;;27.10;18.63;;;0.50;99.90;;;;;;5090468;28;20074;-72
2023/01/22 02:13:58;;;;;;;28.30;18.10;;;0.50;99.90;;;;;;5089458;28;20396;-71
2023/01/22 02:16:24;;;;;;;23.13;16.60;;;0.50;99.90;;;;;;5101252;28;20086;-71
2023/01/22 02:18:49;;;;;;;25.17;17.30;;;0.50;99.90;;;;;;5089143;28;20056;-72
2023/01/22 02:21:47;;;;;;;24.05;16.48;;;0.60;99.90;;;;;;5089263;28;20123;-72
2023/01/22 02:24:15;;;;;;;23.63;15.13;;;0.60;99.90;;;;;;5017064;28;20060;-72
2023/01/22 02:26:43;;;;;;;22.48;15.88;;;0.60;99.90;;;;;;5099421;28;20044;-72
2023/01/22 02:29:10;;;;;;;20.88;14.45;;;0.60;99.90;;;;;;5090006;28;20062;-72
2023/01/22 02:31:36;;;;;;;;;;;0.60;99.90;;;;;;5101129;28;20127;-72
2023/01/22 02:34:04;;;;;;;21.00;14.27;;;0.60;99.90;;;;;;5089139;28;20438;-72
2023/01/22 02:36:32;;;;;;;24.83;15.50;;;0.60;99.90;;;;;;5084966;28;20093;-72
2023/01/22 02:38:57;;;;;;;21.50;15.93;;;0.70;99.90;;;;;;5091355;28;20127;-72
2023/01/22 02:41:24;;;;;;;22.70;15.38;;;0.70;99.90;;;;;;5098209;28;20119;-72
2023/01/22 02:43:50;;;;;;;23.00;14.53;;;0.70;99.90;;;;;;5094245;28;20080;-72
2023/01/22 02:46:16;;;;;;;20.88;15.05;;;0.70;99.90;;;;;;5089244;28;20435;-72
2023/01/22 02:48:41;;;;;;;23.17;15.30;;;0.70;99.90;;;;;;5090504;28;20036;-72
2023/01/22 02:51:07;;;;;;;21.67;16.08;;;0.70;99.90;;;;;;5092867;28;20035;-72
2023/01/22 02:53:33;;;;;;;18.48;14.30;;;0.70;99.90;;;;;;5088161;28;20532;-72
2023/01/22 02:55:59;;;;;;;21.35;14.65;;;0.70;99.90;;;;;;5089531;28;20047;-72
2023/01/22 02:58:24;;;;;;;19.25;13.95;;;0.70;99.90;;;;;;5090136;28;20044;-72
2023/01/22 03:00:50;;;;;;;21.33;14.80;;;0.70;99.90;;;;;;5097382;28;20368;-73
2023/01/22 03:03:17;;;;;;;22.17;15.20;;;0.70;99.90;;;;;;5090202;28;20322;-72
2023/01/22 03:05:50;;;;;;;18.63;14.43;;;0.80;99.90;;;;;;5111855;28;20054;-72
2023/01/22 03:08:17;;;;;;;18.10;14.15;;;0.80;99.90;;;;;;5093281;28;20047;-70
2023/01/22 03:10:44;;;;;;;21.52;15.00;;;0.80;99.90;;;;;;5091399;28;20052;-72
2023/01/22 03:21:22;;;;;;;19.45;12.55;;;0.80;99.90;;;;;;5097713;28;20048;-72
2023/01/22 03:23:52;;;;;;;15.63;12.10;;;0.80;99.90;;;;;;5100622;28;20123;-72
2023/01/22 03:26:19;;;;;;;15.93;12.68;;;0.80;99.90;;;;;;5093078;28;20051;-72
2023/01/22 03:28:45;;;;;;;;;;;0.80;99.90;;;;;;5105678;28;20035;-72
2023/01/22 03:31:11;;;;;;;15.68;11.50;;;0.90;99.90;;;;;;5108059;28;20313;-72
2023/01/22 03:33:37;;;;;;;16.55;12.20;;;0.80;99.90;;;;;;5094958;28;20520;-72
2023/01/22 03:36:06;;;;;;;19.40;12.93;;;0.90;99.90;;;;;;5114748;28;20735;-72
2023/01/22 03:38:32;;;;;;;15.15;11.95;;;0.90;99.90;;;;;;5104096;28;20052;-73
2023/01/22 03:41:10;;;;;;;17.17;12.18;;;0.90;99.90;;;;;;5093140;28;20043;-70
2023/01/22 03:43:36;;;;;;;16.60;11.80;;;0.80;99.90;;;;;;5090769;28;20442;-70
2023/01/22 03:46:14;;;;;;;17.08;12.25;;;0.90;99.90;;;;;;5099866;28;20036;-70
2023/01/22 03:48:40;;;;;;;14.50;11.35;;;0.90;99.90;;;;;;5113088;28;20160;-70
2023/01/22 03:51:12;;;;;;;17.10;12.65;;;0.90;99.90;;;;;;5108970;28;20395;-72
2023/01/22 03:53:38;;;;;;;16.15;12.65;;;0.90;99.90;;;;;;5113695;28;20048;-71
2023/01/22 03:56:06;;;;;;;15.63;11.73;;;1.00;99.90;;;;;;5099670;28;20044;-72
2023/01/22 03:58:33;;;;;;;13.63;10.82;;;0.90;99.90;;;;;;5092889;28;20072;-72
2023/01/22 04:01:07;;;;;;;15.73;11.00;;;0.90;99.90;;;;;;5097932;28;20035;-72
2023/01/22 04:03:34;;;;;;;13.27;10.68;;;0.90;99.90;;;;;;5091495;28;20036;-72
2023/01/22 04:06:00;;;;;;;11.85;10.55;;;0.90;99.90;;;;;;5100250;28;20391;-72
2023/01/22 04:08:30;;;;;;;13.52;10.80;;;0.90;99.90;;;;;;5100971;28;20047;-70
2023/01/22 04:10:56;;;;;;;12.90;11.07;;;0.90;99.90;;;;;;5103259;28;20048;-72
2023/01/22 04:13:23;;;;;;;16.67;11.80;;;0.90;99.90;;;;;;5092092;28;20486;-72
2023/01/22 04:15:49;;;;;;;13.68;11.05;;;0.90;99.90;;;;;;5091110;28;20083;-72
2023/01/22 04:18:15;;;;;;;13.65;10.55;;;0.90;99.90;;;;;;5089241;28;20117;-72
2023/01/22 04:20:41;;;;;;;11.93;10.63;;;0.90;99.90;;;;;;5090589;28;20511;-72
2023/01/22 04:23:07;;;;;;;13.00;10.88;;;0.90;99.90;;;;;;5092268;28;20035;-72
2023/01/22 04:25:33;;;;;;;12.68;10.95;;;1.00;99.90;;;;;;5091646;28;20047;-70
2023/01/22 04:27:59;;;;;;;12.18;10.55;;;0.90;99.90;;;;;;5088562;28;20044;-72
2023/01/22 04:30:24;;;;;;;14.38;11.45;;;0.90;99.90;;;;;;5090203;28;20048;-72
2023/01/22 04:32:50;;;;;;;15.05;11.65;;;0.90;99.90;;;;;;5102791;28;20111;-72
2023/01/22 04:35:16;;;;;;;15.82;11.70;;;0.90;99.90;;;;;;5097411;28;20086;-72
2023/01/22 04:37:42;;;;;;;16.00;12.13;;;0.90;99.90;;;;;;5097829;28;20396;-73
2023/01/22 04:40:08;;;;;;;12.93;11.60;;;0.90;99.90;;;;;;5091516;28;20052;-72
2023/01/22 04:42:34;;;;;;;15.82;11.65;;;0.90;99.90;;;;;;5087002;28;20040;-72
2023/01/22 04:45:00;;;;;;;12.68;11.35;;;0.90;99.90;;;;;;5092678;28;20043;-72
2023/01/22 04:47:26;;;;;;;15.07;11.60;;;0.90;99.90;;;;;;5092138;28;20082;-72
2023/01/22 04:49:52;;;;;;;13.37;11.70;;;0.90;99.90;;;;;;5091565;28;20047;-72
2023/01/22 04:52:18;;;;;;;14.68;11.48;;;0.90;99.90;;;;;;5092824;28;20048;-72
2023/01/22 04:54:43;;;;;;;12.38;11.05;;;0.90;99.90;;;;;;5091921;28;20044;-72
2023/01/22 04:57:10;;;;;;;15.25;11.85;;;0.90;99.90;;;;;;5090083;28;20407;-72
2023/01/22 04:59:36;;;;;;;13.70;11.35;;;0.90;99.90;;;;;;5100953;28;20044;-72
2023/01/22 05:02:02;;;;;;;12.35;10.77;;;0.90;99.90;;;;;;5094696;28;20066;-72
2023/01/22 05:04:27;;;;;;;12.93;11.23;;;0.90;99.90;;;;;;5095749;28;20606;-73
2023/01/22 05:06:53;;;;;;;10.88;9.70;;;0.90;99.90;;;;;;5095959;28;20067;-70
2023/01/22 05:09:19;;;;;;;13.18;10.93;;;0.90;99.90;;;;;;5091888;28;20825;-73
2023/01/22 05:11:45;;;;;;;13.18;11.38;;;0.90;99.90;;;;;;5087399;28;20390;-70
2023/01/22 05:14:10;;;;;;;15.30;11.50;;;0.90;99.90;;;;;;5089805;28;20044;-70
2023/01/22 05:16:36;;;;;;;12.85;10.98;;;0.90;99.90;;;;;;5077277;28;20032;-70
2023/01/22 05:19:02;;;;;;;12.88;10.75;;;0.90;99.90;;;;;;5091928;28;20562;-70
2023/01/22 05:21:27;;;;;;;14.77;9.85;;;0.90;99.90;;;;;;5091687;28;20050;-70
2023/01/22 05:23:53;;;;;;;12.35;9.50;;;0.90;99.90;;;;;;5090488;28;20036;-71
2023/01/22 05:26:19;;;;;;;11.93;9.63;;;0.90;99.90;;;;;;5094365;28;20062;-71
2023/01/22 05:28:45;;;;;;;10.88;9.55;;;0.90;99.90;;;;;;5091814;28;20048;-71
2023/01/22 05:31:11;;;;;;;12.52;10.40;;;0.90;99.90;;;;;;5096531;28;20035;-70
2023/01/22 05:33:38;;;;;;;13.05;9.20;;;0.90;99.90;;;;;;5109614;28;20089;-71
2023/01/22 05:36:04;;;;;;;10.68;9.30;;;0.90;99.90;;;;;;5108033;28;20040;-71
2023/01/22 05:38:29;;;;;;;12.15;9.68;;;0.90;99.90;;;;;;5093128;28;20055;-71
2023/01/22 05:40:55;;;;;;;11.55;9.38;;;0.90;99.90;;;;;;5093216;28;20491;-71
2023/01/22 05:43:21;;;;;;;10.68;9.52;;;0.90;99.90;;;;;;5111432;28;20054;-71
2023/01/22 05:45:47;;;;;;;12.20;9.13;;;0.90;99.90;;;;;;5109079;28;20039;-71
2023/01/22 05:48:13;;;;;;;12.52;8.90;;;0.90;99.90;;;;;;5112211;28;20040;-71
2023/01/22 05:50:39;;;;;;;10.77;8.75;;;0.90;99.90;;;;;;5097084;28;20044;-71
2023/01/22 05:53:05;;;;;;;10.98;8.93;;;0.90;99.90;;;;;;5072345;28;20032;-71
2023/01/22 05:55:32;;;;;;;12.10;9.88;;;0.90;99.90;;;;;;5088419;28;20758;-70
2023/01/22 05:57:58;;;;;;;12.15;8.95;;;0.90;99.90;;;;;;5105414;28;20699;-71
2023/01/22 06:00:24;;;;;;;11.98;8.65;;;0.90;99.90;;;;;;5086900;28;20036;-70
2023/01/22 06:02:55;;;;;;;11.38;8.80;;;0.90;99.90;;;;;;5092310;28;20190;-70
2023/01/22 06:05:20;;;;;;;10.30;9.20;;;0.90;99.90;;;;;;5107688;28;20936;-71
2023/01/22 06:07:46;;;;;;;11.80;8.57;;;0.90;99.90;;;;;;5092405;28;20180;-71
2023/01/22 06:10:11;;;;;;;11.63;9.15;;;0.90;99.90;;;;;;5087661;28;20052;-70
2023/01/22 06:12:37;;;;;;;11.93;8.68;;;0.90;99.90;;;;;;5097853;28;20074;-71
2023/01/22 06:15:03;;;;;;;13.57;9.20;;;0.90;99.90;;;;;;5087831;28;20127;-71
2023/01/22 06:17:29;;;;;;;11.45;8.50;;;0.90;99.90;;;;;;5090216;28;20131;-71
2023/01/22 06:19:54;;;;;;;11.52;8.57;;;0.90;99.90;;;;;;5091429;28;20055;-71
2023/01/22 06:22:20;;;;;;;11.48;7.88;;;0.90;99.90;;;;;;5089410;28;20390;-71
2023/01/22 06:24:45;;;;;;;11.77;8.98;;;0.90;99.90;;;;;;5091471;28;20575;-71
2023/01/22 06:27:11;;;;;;;10.98;8.55;;;0.90;99.90;;;;;;5090491;28;20415;-70
2023/01/22 06:29:37;;;;;;;12.82;8.93;;;0.90;99.90;;;;;;5089533;28;20082;-71
2023/01/22 06:32:02;;;;;;;11.40;8.50;;;0.90;99.90;;;;;;5094387;28;20036;-71
2023/01/22 06:34:28;;;;;;;10.70;8.23;;;0.90;99.90;;;;;;5098472;28;20043;-71
2023/01/22 06:36:54;;;;;;;11.50;9.05;;;0.90;99.90;;;;;;5090710;28;20500;-71
2023/01/22 06:39:19;;;;;;;11.02;9.02;;;0.90;99.90;;;;;;5089103;28;20050;-70
2023/01/22 06:41:47;;;;;;;13.10;9.45;;;0.80;99.90;;;;;;5091119;28;20044;-71
2023/01/22 06:44:13;;;;;;;13.73;8.80;;;0.90;99.90;;;;;;5089798;28;20048;-70
2023/01/22 06:46:38;;;;;;;14.73;9.88;;;0.90;99.90;;;;;;5088037;28;20040;-70
2023/01/22 06:49:04;;;;;;;14.05;9.55;;;0.80;99.90;;;;;;5089506;28;20044;-70
2023/01/22 06:51:30;;;;;;;12.13;9.55;;;0.80;99.90;;;;;;5090080;28;20055;-71
2023/01/22 06:53:56;;;;;;;12.80;9.65;;;0.80;99.90;;;;;;5085926;28;20056;-71
2023/01/22 06:56:22;;;;;;;11.90;9.02;;;0.80;99.90;;;;;;5071312;28;20073;-71
2023/01/22 06:58:47;;;;;;;13.32;9.30;;;0.80;99.90;;;;;;5089302;28;20051;-71
2023/01/22 07:01:13;;;;;;;12.43;9.35;;;0.80;99.90;;;;;;5086724;28;20044;-71
2023/01/22 07:03:39;;;;;;;14.55;9.85;;;0.80;99.90;;;;;;5090949;28;20039;-70
2023/01/22 07:06:05;;;;;;;12.63;9.52;;;0.80;99.90;;;;;;5095030;28;20048;-71
2023/01/22 07:08:32;;;;;;;10.65;8.98;;;0.80;99.90;;;;;;5087165;28;20153;-70
2023/01/22 07:10:58;;;;;;;12.70;8.73;;;0.80;99.90;;;;;;5103491;28;20474;-71
2023/01/22 07:13:24;;;;;;;13.02;9.55;;;0.80;99.90;;;;;;5089712;28;20040;-71
2023/01/22 07:15:50;;;;;;;13.00;9.73;;;0.80;99.90;;;;;;5089563;28;20044;-71
2023/01/22 07:18:18;;;;;;;12.65;10.23;;;0.80;99.90;;;;;;5089704;28;20467;-70
2023/01/22 07:20:44;;;;;;;17.92;9.52;;;0.80;99.90;;;;;;5096473;28;20052;-70
2023/01/22 07:23:10;;;;;;;14.75;9.98;;;0.80;99.90;;;;;;5088506;28;20036;-71
2023/01/22 07:25:36;;;;;;;11.98;9.63;;;0.80;99.90;;;;;;5090944;28;20036;-71
2023/01/22 07:28:03;;;;;;;13.85;10.48;;;0.80;99.90;;;;;;5089243;28;20040;-71
2023/01/22 07:30:28;;;;;;;13.02;9.65;;;0.80;99.90;;;;;;5105227;28;20088;-70
2023/01/22 07:32:59;;;;;;;15.48;10.35;;;0.80;99.90;;;;;;5103606;28;20047;-71
2023/01/22 07:35:25;;;;;;;13.98;10.25;;;0.80;99.90;;;;;;5109419;28;20522;-70
2023/01/22 07:37:56;;;;;;;11.10;9.35;;;0.80;99.90;;;;;;5085553;28;20505;-71
2023/01/22 07:40:23;;;;;;;13.45;10.85;;;0.80;99.90;;;;;;5089765;28;20051;-71
2023/01/22 07:42:49;;;;;;;11.98;9.93;;;0.80;99.90;;;;;;5088202;28;20081;-71
2023/01/22 07:45:18;;;;;;;14.93;10.07;;;0.80;99.90;;;;;;5107237;28;20444;-71
2023/01/22 07:47:56;;;;;;;12.63;9.85;;;0.80;99.90;;;;;;5102737;28;20071;-71
2023/01/22 07:50:27;;;;;;;13.85;10.43;;;0.80;99.90;;;;;;5114097;28;20054;-71
2023/01/22 07:52:53;;;;;;;12.95;10.27;;;0.80;99.90;;;;;;5098772;28;20046;-70
2023/01/22 07:55:20;;;;;;;14.00;10.38;;;0.90;99.90;;;;;;5087401;28;20039;-71
2023/01/22 07:57:45;;;;;;;14.93;10.00;;;0.90;99.90;;;;;;5113102;28;20050;-71
2023/01/22 08:00:14;;;;;;;13.00;10.30;;;0.90;99.90;;;;;;5095606;28;20131;-71
2023/01/22 08:02:41;;;;;;;13.05;10.15;;;0.90;99.90;;;;;;5092252;28;20487;-74
2023/01/22 08:05:09;;;;;;;15.32;10.80;;;0.90;99.90;;;;;;5094980;28;20055;-72
2023/01/22 08:07:34;;;;;;;12.82;10.60;;;0.90;99.90;;;;;;5097624;28;20043;-70
2023/01/22 08:10:00;;;;;;;13.23;10.70;;;0.90;99.90;;;;;;5101871;28;20537;-74
2023/01/22 08:12:26;;;;;;;13.23;10.18;;;0.90;99.90;;;;;;5108062;28;20485;-74
2023/01/22 08:14:51;;;;;;;13.07;9.55;;;0.90;99.90;;;;;;5114109;28;20046;-74
2023/01/22 08:17:17;;;;;;;11.48;10.20;;;0.90;99.90;;;;;;5105786;28;20044;-75
2023/01/22 08:19:42;;;;;;;13.32;10.57;;;0.90;99.90;;;;;;5112944;28;20051;-76
2023/01/22 08:22:08;;;;;;;12.60;10.20;;;0.90;99.90;;;;;;5105635;28;20482;-74
2023/01/22 08:24:34;;;;;;;14.25;10.13;;;0.90;99.90;;;;;;5110775;28;20363;-75
2023/01/22 08:27:00;;;;;;;12.65;9.70;;;0.90;99.90;;;;;;5097932;28;20068;-74
2023/01/22 08:29:25;;;;;;;13.45;9.98;;;0.90;99.90;;;;;;5091904;28;20051;-77
2023/01/22 08:31:54;;;;;;;12.60;10.07;;;0.90;99.90;;;;;;5095219;28;20031;-76
2023/01/22 08:34:21;;;;;;;14.32;10.35;;;0.90;99.90;;;;;;5110799;28;20063;-74
2023/01/22 08:36:47;;;;;;;13.43;10.05;;;0.90;99.90;;;;;;5092116;28;20055;-78
2023/01/22 08:39:12;;;;;;;16.67;10.38;;;0.90;99.90;;;;;;5091533;28;20044;-79
2023/01/22 08:41:39;;;;;;;12.15;9.82;;;1.00;99.90;;;;;;5096892;28;20051;-79
2023/01/22 08:44:06;;;;;;;13.88;9.85;;;1.00;99.90;;;;;;5107260;28;20044;-78
2023/01/22 08:46:34;;;;;;;14.90;10.45;;;1.00;99.90;;;;;;5102236;28;20040;-78
2023/01/22 08:49:02;;;;;;;13.93;10.23;;;1.00;99.90;;;;;;5103272;28;20482;-75
2023/01/22 08:51:27;;;;;;;;;;;1.00;99.90;;;;;;5106400;28;20043;-70
2023/01/22 08:53:53;;;;;;;13.23;10.25;;;1.00;99.90;;;;;;5088910;28;20367;-69
2023/01/22 08:56:19;;;;;;;13.65;10.35;;;1.00;99.90;;;;;;5095926;28;20142;-71
2023/01/22 08:58:49;;;;;;;14.57;10.45;;;1.00;99.90;;;;;;5090227;28;20122;-70
2023/01/22 09:01:16;;;;;;;15.50;10.65;;;1.00;99.90;;;;;;5090989;28;20036;-71
2023/01/22 09:03:42;;;;;;;15.55;10.80;;;1.00;99.90;;;;;;5087902;28;20660;-70
2023/01/22 09:06:09;;;;;;;13.40;10.38;;;1.00;99.90;;;;;;5106305;28;20054;-70
2023/01/22 09:08:35;;;;;;;15.32;10.90;;;1.10;99.90;;;;;;5092882;28;20050;-70
2023/01/22 09:11:03;;;;;;;15.13;10.57;;;1.10;99.90;;;;;;5101324;28;20036;-71
2023/01/22 09:13:31;;;;;;;14.10;10.60;;;1.10;99.90;;;;;;5093405;28;20067;-70
2023/01/22 09:15:58;;;;;;;14.55;11.10;;;1.10;99.90;;;;;;5102115;28;20395;-70
2023/01/22 09:18:23;;;;;;;14.02;10.55;;;1.10;99.90;;;;;;5092263;28;20032;-71
2023/01/22 09:20:49;;;;;;;15.15;11.40;;;1.10;99.90;;;;;;5100282;28;20038;-71
2023/01/22 09:23:15;;;;;;;15.18;11.30;;;1.10;99.90;;;;;;5091500;28;20479;-70
2023/01/22 09:25:41;;;;;;;13.95;11.60;;;1.20;99.90;;;;;;5092314;28;20506;-71
2023/01/22 09:28:08;;;;;;;14.73;11.38;;;1.20;99.90;;;;;;5088488;28;20058;-71
2023/01/22 09:30:38;;;;;;;14.88;10.93;;;1.20;99.90;;;;;;5103925;28;20036;-70
2023/01/22 09:33:04;;;;;;;12.80;11.15;;;1.20;99.90;;;;;;5097064;28;20108;-71
2023/01/22 09:35:30;;;;;;;16.13;11.20;;;1.20;99.90;;;;;;5090308;28;20050;-71
2023/01/22 09:37:55;;;;;;;13.52;11.00;;;1.20;99.90;;;;;;5088539;28;20044;-71
2023/01/22 09:40:50;;;;;;;14.63;11.80;;;1.20;99.90;;;;;;5091978;28;20108;-71
2023/01/22 09:43:48;;;;;;;14.60;10.98;;;1.20;99.90;;;;;;5089642;28;20056;-71
2023/01/22 09:46:26;;;;;;;15.65;11.68;;;1.20;99.90;;;;;;5092022;28;20031;-71
2023/01/22 09:49:16;;;;;;;13.85;11.57;;;1.20;99.90;;;;;;5106287;28;20044;-71
2023/01/22 09:51:52;;;;;;;12.95;11.40;;;1.20;99.90;;;;;;5076698;28;20048;-70
2023/01/22 09:54:19;;;;;;;16.00;11.27;;;1.30;99.90;;;;;;5090419;28;20055;-71
2023/01/22 09:56:49;;;;;;;16.92;12.52;;;1.30;99.90;;;;;;5089529;28;20059;-70
2023/01/22 09:59:35;;;;;;;12.70;11.15;;;1.30;99.90;;;;;;5088709;28;20040;-70
2023/01/22 10:02:29;;;;;;;16.33;12.32;;;1.30;99.90;;;;;;5096244;28;20457;-71
2023/01/22 10:05:29;;;;;;;16.27;12.02;;;1.30;99.90;;;;;;5073177;28;20052;-71
2023/01/22 10:08:20;;;;;;;15.57;12.07;;;1.30;99.90;;;;;;5088143;28;20068;-70
2023/01/22 10:10:47;;;;;;;15.50;12.18;;;1.30;99.90;;;;;;5093775;28;20031;-70
2023/01/22 10:13:23;;;;;;;14.25;11.55;;;1.30;99.90;;;;;;5075545;28;20526;-76
2023/01/22 10:15:51;;;;;;;16.17;12.00;;;1.30;99.90;;;;;;5079428;28;20499;-70
2023/01/22 10:18:46;;;;;;;15.93;12.15;;;1.30;99.90;;;;;;5103223;28;20044;-71
2023/01/22 10:21:18;;;;;;;14.55;11.57;;;1.30;99.90;;;;;;5074171;28;20064;-70
2023/01/22 10:23:45;;;;;;;14.50;12.05;;;1.30;99.90;;;;;;5088920;28;20036;-70
2023/01/22 10:26:23;;;;;;;15.88;12.40;;;1.30;99.90;;;;;;5085390;28;20127;-70
2023/01/22 10:28:53;;;;;;;14.65;12.02;;;1.30;99.90;;;;;;5087756;28;20048;-70
2023/01/22 10:31:23;;;;;;;15.90;12.20;;;1.40;99.90;;;;;;5093912;28;20052;-70
2023/01/22 10:33:58;;;;;;;13.60;12.02;;;1.40;99.90;;;;;;5089330;28;20048;-70
2023/01/22 10:36:25;;;;;;;14.27;12.77;;;1.40;99.90;;;;;;5088528;28;20036;-70
2023/01/22 10:39:12;;;;;;;13.40;11.98;;;1.40;99.90;;;;;;5108780;28;20044;-70
2023/01/22 10:41:39;;;;;;;14.32;11.07;;;1.40;99.90;;;;;;5100039;28;20043;-70
2023/01/22 10:44:25;;;;;;;13.77;11.82;;;1.40;99.90;;;;;;5089161;28;20048;-80
2023/01/22 10:46:52;;;;;;;15.73;12.40;;;1.40;99.90;;;;;;5091360;28;20501;-76
2023/01/22 10:49:25;;;;;;;15.48;11.77;;;1.40;99.90;;;;;;5085607;28;20052;-77
2023/01/22 10:51:59;;;;;;;16.70;12.30;;;1.40;99.90;;;;;;5094856;28;20051;-76
2023/01/22 10:54:29;;;;;;;16.08;11.93;;;1.40;99.90;;;;;;5087939;28;20058;-81
2023/01/22 10:57:26;;;;;;;17.05;12.32;;;1.40;99.90;;;;;;5085413;28;20048;-79
2023/01/22 11:00:00;;;;;;;18.60;12.40;;;1.50;99.90;;;;;;5086087;28;20133;-77
2023/01/22 11:02:26;;;;;;;14.32;11.95;;;1.50;99.90;;;;;;5085529;28;20039;-79
2023/01/22 11:04:52;;;;;;;15.10;11.65;;;1.50;99.90;;;;;;5086295;28;20119;-79
2023/01/22 11:07:28;;;;;;;17.90;12.75;;;1.50;99.90;;;;;;5098935;28;20035;-82
2023/01/22 11:10:14;;;;;;;18.25;12.43;;;1.50;99.90;;;;;;5086050;28;20489;-82
2023/01/22 11:12:44;;;;;;;17.05;12.95;;;1.50;99.90;;;;;;5097468;28;20086;-82
2023/01/22 11:15:25;;;;;;;15.27;12.15;;;1.50;99.90;;;;;;5088490;28;20055;-81
2023/01/22 11:17:58;;;;;;;15.80;12.65;;;1.60;99.90;;;;;;5088033;28;20040;-75
2023/01/22 11:20:42;;;;;;;16.92;12.68;;;1.60;99.90;;;;;;5076099;28;20090;-77
2023/01/22 11:23:08;;;;;;;16.98;12.95;;;1.60;99.90;;;;;;5089763;28;20051;-78
2023/01/22 11:26:05;;;;;;;16.20;12.82;;;1.70;99.90;;;;;;5092492;28;20484;-78
2023/01/22 11:28:58;;;;;;;15.02;12.85;;;1.70;99.90;;;;;;5067298;28;20055;-70
2023/01/22 11:31:35;;;;;;;16.63;12.88;;;1.70;99.90;;;;;;5085383;28;20109;-76
2023/01/22 11:34:35;;;;;;;17.50;12.80;;;1.70;99.90;;;;;;5093952;28;20464;-80
2023/01/22 11:37:12;;;;;;;17.23;13.25;;;1.70;99.90;;;;;;5100457;28;20491;-80
2023/01/22 11:39:56;;;;;;;15.00;12.40;;;1.70;99.90;;;;;;5085001;28;20043;-77
2023/01/22 11:43:06;;;;;;;16.15;12.95;;;1.80;99.90;;;;;;5090267;28;20043;-78
2023/01/22 11:46:11;;;;;;;14.63;11.65;;;1.80;99.90;;;;;;5065967;28;20919;-78
2023/01/22 11:49:00;;;;;;;15.80;12.73;;;1.70;99.90;;;;;;5073358;28;20063;-76
2023/01/22 11:51:45;;;;;;;15.85;12.30;;;1.70;99.90;;;;;;5101755;28;20118;-75
2023/01/22 11:54:20;;;;;;;16.73;12.75;;;1.70;99.90;;;;;;5105896;28;20052;-76
2023/01/22 11:57:15;;;;;;;15.65;12.70;;;1.70;99.90;;;;;;5101036;28;20093;-75
2023/01/22 12:00:05;;;;;;;15.88;12.75;;;1.70;99.90;;;;;;5082771;28;20036;-78
2023/01/22 12:02:36;;;;;;;16.55;13.00;;;1.70;99.90;;;;;;5096509;28;20078;-78
2023/01/22 12:05:24;;;;;;;17.00;12.45;;;1.70;99.90;;;;;;5090140;28;20552;-76
2023/01/22 12:08:05;;;;;;;20.27;12.25;;;1.70;99.90;;;;;;5098384;28;20380;-78
2023/01/22 12:10:51;;;;;;;16.20;12.82;;;1.70;99.90;;;;;;5104874;28;20118;-78
2023/01/22 12:13:41;;;;;;;15.82;12.52;;;1.70;99.90;;;;;;5082357;28;20056;-77
2023/01/22 12:16:37;;;;;;;18.13;13.15;;;1.70;99.90;;;;;;5083956;28;20075;-75
2023/01/22 12:19:40;;;;;;;15.88;13.60;;;1.70;99.90;;;;;;5086613;28;20115;-79
2023/01/22 12:22:26;;;;;;;17.42;12.15;;;1.70;99.90;;;;;;5099180;28;20540;-76
2023/01/22 12:25:10;;;;;;;17.48;12.45;;;1.70;99.90;;;;;;5092485;28;20117;-75
2023/01/22 12:27:41;;;;;;;15.77;12.63;;;1.70;99.90;;;;;;5091291;28;20076;-77
2023/01/22 12:30:12;;;;;;;18.73;12.65;;;1.80;99.90;;;;;;5089503;28;20043;-76
2023/01/22 12:32:41;;;;;;;19.42;12.32;;;1.80;99.90;;;;;;5096527;28;20097;-72
2023/01/22 12:35:13;;;;;;;17.23;12.40;;;1.80;99.90;;;;;;5094714;28;20032;-72
2023/01/22 12:38:16;;;;;;;17.92;12.98;;;1.80;99.90;;;;;;5048026;27;20821;-72
2023/01/22 12:40:55;;;;;;;16.20;12.52;;;1.80;99.90;;;;;;5087719;28;20114;-72
2023/01/22 12:43:47;;;;;;;19.55;13.07;;;1.90;99.90;;;;;;5067688;28;20041;-72
2023/01/22 12:46:20;;;;;;;14.98;11.93;;;1.80;99.90;;;;;;5040428;28;20123;-70
2023/01/22 12:49:08;;;;;;;16.00;13.00;;;1.90;99.90;;;;;;5059511;28;20545;-72
2023/01/22 12:51:40;;;;;;;15.32;11.95;;;1.90;99.90;;;;;;5056743;28;20508;-74
2023/01/22 12:54:24;;;;;;;16.10;12.25;;;1.90;99.90;;;;;;5066151;28;20059;-74
2023/01/22 12:56:52;;;;;;;15.55;12.57;;;1.90;99.90;;;;;;5065610;28;20059;-74
2023/01/22 12:59:46;;;;;;;;;;;1.90;99.90;;;;;;5064659;28;20491;-72
2023/01/22 13:02:29;;;;;;;16.27;11.50;;;1.90;99.90;;;;;;5052328;28;19920;-72
2023/01/22 13:04:55;;;;;;;15.80;12.45;;;1.90;99.90;;;;;;5048266;28;20377;-74